Time;durP1;ratioP1;P1;durP2;ratioP2;P2;SDS_P1;SDS_P2;PMS_P1;PMS_P2;Temp;Humidity;BMP_temperature;BMP_pressure;BME280_temperature;BME280_humidity;BME280_pressure;Samples;Min_cycle;Max_cycle;Signal;HPM_P1;HPM_P2
2022/06/13 00:01:24;;;;;;;104.77;98.53;;;17.50;99.90;;;;;;5010264;28;20562;-70
2022/06/13 00:03:51;;;;;;;166.67;157.43;;;17.30;99.90;;;;;;5009827;28;20199;-69
2022/06/13 00:06:18;;;;;;;80.77;76.00;;;17.20;99.90;;;;;;5010173;28;20179;-70
2022/06/13 00:08:44;;;;;;;112.57;105.77;;;17.00;99.90;;;;;;5009495;28;20180;-70
2022/06/13 00:11:13;;;;;;;44.90;41.63;;;17.00;99.90;;;;;;5009533;28;20176;-70
2022/06/13 00:13:42;;;;;;;20.57;19.23;;;16.90;99.90;;;;;;5009574;28;20184;-70
2022/06/13 00:16:09;;;;;;;20.03;18.70;;;16.80;99.90;;;;;;5010383;28;20595;-70
2022/06/13 00:18:35;;;;;;;60.20;56.83;;;16.80;99.90;;;;;;5008802;28;20663;-70
2022/06/13 00:21:02;;;;;;;38.47;36.13;;;16.90;99.90;;;;;;5009978;28;20258;-70
2022/06/13 00:23:27;;;;;;;26.87;25.13;;;17.00;99.90;;;;;;5009510;28;20253;-70
2022/06/13 00:25:53;;;;;;;18.63;17.63;;;16.90;99.90;;;;;;5010224;28;20203;-71
2022/06/13 00:28:19;;;;;;;11.53;10.53;;;16.80;99.90;;;;;;5008012;28;20555;-71
2022/06/13 00:30:45;;;;;;;25.50;23.83;;;16.70;99.90;;;;;;5012155;28;20191;-71
2022/06/13 00:33:11;;;;;;;32.33;30.30;;;16.60;99.90;;;;;;5013030;28;20187;-71
2022/06/13 00:35:37;;;;;;;32.27;30.43;;;16.70;99.90;;;;;;5013241;28;20281;-72
2022/06/13 00:38:03;;;;;;;42.77;40.30;;;16.80;99.90;;;;;;5012424;28;20179;-72
2022/06/13 00:40:33;;;;;;;75.23;71.00;;;16.90;99.90;;;;;;5012066;28;20270;-72
2022/06/13 00:43:00;;;;;;;34.47;32.13;;;16.90;99.90;;;;;;5012630;28;20180;-72
2022/06/13 00:45:36;;;;;;;47.87;44.97;;;16.90;99.90;;;;;;5012100;28;20200;-72
2022/06/13 00:48:03;;;;;;;42.63;40.10;;;16.90;99.90;;;;;;5012397;28;20640;-72
2022/06/13 00:50:34;;;;;;;58.93;55.33;;;16.90;99.90;;;;;;5011863;28;20176;-72
2022/06/13 00:53:15;;;;;;;40.83;38.50;;;17.00;99.90;;;;;;5012475;28;20195;-72
2022/06/13 00:56:03;;;;;;;45.43;42.83;;;17.00;99.90;;;;;;5011559;28;20618;-72
2022/06/13 00:58:34;;;;;;;53.73;50.67;;;17.00;99.90;;;;;;5012237;28;20188;-72
2022/06/13 01:01:02;;;;;;;50.13;47.10;;;17.00;99.90;;;;;;5012489;28;20211;-72
2022/06/13 01:03:29;;;;;;;26.90;25.43;;;17.00;99.90;;;;;;5012121;28;20180;-72
2022/06/13 01:05:59;;;;;;;30.27;28.50;;;17.10;99.90;;;;;;5012755;28;20203;-72
2022/06/13 01:08:27;;;;;;;31.90;29.97;;;17.10;99.90;;;;;;5012013;28;20187;-72
2022/06/13 01:11:16;;;;;;;25.30;23.67;;;17.10;99.90;;;;;;5012761;28;20180;-72
2022/06/13 01:14:06;;;;;;;41.87;39.57;;;17.10;99.90;;;;;;5010822;28;20279;-72
2022/06/13 01:17:06;;;;;;;14.97;13.90;;;17.00;99.90;;;;;;5012757;28;20198;-72
2022/06/13 01:19:59;;;;;;;31.87;30.10;;;16.90;99.90;;;;;;5012510;28;20195;-72
2022/06/13 01:22:45;;;;;;;27.23;25.27;;;16.90;99.90;;;;;;5011996;28;20180;-71
2022/06/13 01:25:32;;;;;;;22.03;20.73;;;16.90;99.90;;;;;;5012314;28;20203;-72
2022/06/13 01:28:28;;;;;;;21.33;20.00;;;16.90;99.90;;;;;;5010483;28;20188;-72
2022/06/13 01:31:09;;;;;;;24.57;23.20;;;16.90;99.90;;;;;;5012352;28;20612;-72
2022/06/13 01:33:40;;;;;;;47.53;44.83;;;16.80;99.90;;;;;;5012375;28;20660;-72
2022/06/13 01:36:21;;;;;;;47.60;44.57;;;16.80;99.90;;;;;;5013299;28;20180;-72
2022/06/13 01:39:18;;;;;;;52.37;49.50;;;16.80;99.90;;;;;;5011669;28;20596;-71
2022/06/13 01:42:12;;;;;;;34.63;32.43;;;16.80;99.90;;;;;;5012336;28;20219;-71
2022/06/13 01:45:03;;;;;;;19.57;18.27;;;16.80;99.90;;;;;;5005303;28;20211;-70
2022/06/13 01:47:42;;;;;;;12.77;11.73;;;16.80;99.90;;;;;;5011282;28;20199;-71
2022/06/13 01:50:26;;;;;;;10.83;10.00;;;16.70;99.90;;;;;;5012486;28;20190;-72
2022/06/13 01:53:47;;;;;;;10.77;9.70;;;16.70;99.90;;;;;;5012065;28;20566;-73
2022/06/13 01:56:15;;;;;;;16.73;15.77;;;16.70;99.90;;;;;;4982621;28;20201;-71
2022/06/13 01:59:02;;;;;;;28.03;26.10;;;16.60;99.90;;;;;;4991700;28;20192;-72
2022/06/13 02:02:03;;;;;;;60.57;57.43;;;16.60;99.90;;;;;;4992541;28;20751;-71
2022/06/13 02:04:36;;;;;;;40.17;37.87;;;16.60;99.90;;;;;;5004585;28;20202;-71
2022/06/13 02:07:02;;;;;;;13.43;12.17;;;16.60;99.90;;;;;;5011368;28;20535;-72
2022/06/13 02:09:31;;;;;;;13.13;12.07;;;16.50;99.90;;;;;;5011918;28;20650;-72
2022/06/13 02:11:58;;;;;;;12.20;11.17;;;16.50;99.90;;;;;;5011866;28;20191;-71
2022/06/13 02:14:36;;;;;;;11.20;10.40;;;16.40;99.90;;;;;;5011787;28;20212;-72
2022/06/13 02:17:11;;;;;;;12.53;11.57;;;16.50;99.90;;;;;;5010101;28;20266;-71
2022/06/13 02:19:53;;;;;;;11.97;10.90;;;16.50;99.90;;;;;;5012243;28;20179;-71
2022/06/13 02:22:40;;;;;;;13.77;12.53;;;16.50;99.90;;;;;;5011847;28;20644;-71
2022/06/13 02:25:18;;;;;;;40.10;37.60;;;16.60;99.90;;;;;;5011220;28;20211;-72
2022/06/13 02:27:57;;;;;;;39.77;37.03;;;16.60;99.90;;;;;;5019413;28;20178;-72
2022/06/13 02:30:29;;;;;;;50.20;47.50;;;16.60;99.90;;;;;;5008294;28;20187;-71
2022/06/13 02:33:03;;;;;;;51.77;48.93;;;16.60;99.90;;;;;;5010128;28;20224;-71
2022/06/13 02:35:39;;;;;;;62.27;58.83;;;16.50;99.90;;;;;;5010828;28;20242;-72
2022/06/13 02:38:17;;;;;;;71.30;67.37;;;16.50;99.90;;;;;;5010128;28;20663;-72
2022/06/13 02:40:53;;;;;;;99.17;94.10;;;16.50;99.90;;;;;;5011218;28;20207;-72
2022/06/13 02:43:25;;;;;;;74.60;69.90;;;16.40;99.90;;;;;;5011137;28;20664;-72
2022/06/13 02:45:58;;;;;;;87.00;82.37;;;16.50;99.90;;;;;;5010956;28;20222;-72
2022/06/13 02:48:51;;;;;;;43.37;40.80;;;16.50;99.90;;;;;;5010696;28;20188;-72
2022/06/13 02:51:21;;;;;;;48.77;45.93;;;16.50;99.90;;;;;;5011084;28;20179;-72
2022/06/13 02:54:28;;;;;;;46.07;43.33;;;16.40;99.90;;;;;;5008899;28;20183;-71
2022/06/13 02:57:23;;;;;;;15.77;14.77;;;16.40;99.90;;;;;;5007988;28;20187;-71
2022/06/13 03:00:20;;;;;;;9.83;8.80;;;16.40;99.90;;;;;;5010375;28;20674;-71
2022/06/13 03:03:10;;;;;;;19.47;18.27;;;16.20;99.90;;;;;;5002739;28;20661;-72
2022/06/13 03:05:57;;;;;;;17.80;16.50;;;16.20;99.90;;;;;;5009675;28;20212;-72
2022/06/13 03:08:41;;;;;;;37.07;34.97;;;16.20;99.90;;;;;;4995409;28;20171;-71
2022/06/13 03:11:26;;;;;;;57.73;54.73;;;16.20;99.90;;;;;;5010456;28;20175;-71
2022/06/13 03:14:10;;;;;;;48.07;45.27;;;16.20;99.90;;;;;;5007559;28;20191;-72
2022/06/13 03:16:56;;;;;;;54.70;51.80;;;16.20;99.90;;;;;;5010492;28;20234;-71
2022/06/13 03:19:37;;;;;;;63.53;60.27;;;16.10;99.90;;;;;;5009198;28;20191;-72
2022/06/13 03:22:45;;;;;;;37.03;34.93;;;16.10;99.90;;;;;;5010042;28;20282;-71
2022/06/13 03:25:25;;;;;;;43.07;40.33;;;16.10;99.90;;;;;;5010162;28;20199;-71
2022/06/13 03:28:09;;;;;;;48.83;45.83;;;16.10;99.90;;;;;;5009803;28;20183;-71
2022/06/13 03:30:41;;;;;;;38.43;36.23;;;16.00;99.90;;;;;;5010668;28;20183;-71
2022/06/13 03:36:02;;;;;;;26.20;24.60;;;16.10;99.90;;;;;;5010302;28;20215;-72
2022/06/13 03:38:35;;;;;;;76.50;72.20;;;16.10;99.90;;;;;;5008012;28;20183;-71
2022/06/13 03:41:03;;;;;;;84.73;79.93;;;16.20;99.90;;;;;;5009452;28;20808;-71
2022/06/13 03:43:58;;;;;;;73.70;69.33;;;16.20;99.90;;;;;;5009232;28;20180;-71
2022/06/13 03:46:27;;;;;;;139.10;130.53;;;16.20;99.90;;;;;;5010242;28;20198;-71
2022/06/13 03:49:03;;;;;;;72.77;68.47;;;16.30;99.90;;;;;;5024669;28;20172;-71
2022/06/13 03:51:40;;;;;;;109.17;102.90;;;16.40;99.90;;;;;;5011377;28;20183;-71
2022/06/13 03:54:27;;;;;;;39.87;37.47;;;16.30;99.90;;;;;;5010813;28;20585;-71
2022/06/13 03:56:56;;;;;;;86.20;81.73;;;16.30;99.90;;;;;;5019959;28;20777;-72
2022/06/13 03:59:34;;;;;;;98.13;93.20;;;16.30;99.90;;;;;;5010285;28;20548;-71
2022/06/13 04:02:08;;;;;;;57.73;54.77;;;16.30;99.90;;;;;;5010285;28;20249;-72
2022/06/13 04:04:39;;;;;;;59.87;56.63;;;16.20;99.90;;;;;;5009351;28;20668;-71
2022/06/13 04:07:05;;;;;;;64.63;61.30;;;16.20;99.90;;;;;;5013327;28;20282;-71
2022/06/13 04:09:38;;;;;;;32.23;30.40;;;16.20;99.90;;;;;;5013981;28;20176;-72
2022/06/13 04:12:13;;;;;;;33.33;31.30;;;16.30;99.90;;;;;;5014063;28;20184;-70
2022/06/13 04:14:57;;;;;;;107.97;101.60;;;16.30;99.90;;;;;;5014024;28;20215;-70
2022/06/13 04:18:04;;;;;;;54.37;51.07;;;16.40;99.90;;;;;;5013066;28;20187;-70
2022/06/13 04:20:45;;;;;;;123.10;116.13;;;16.40;99.90;;;;;;5013422;28;20273;-69
2022/06/13 04:23:40;;;;;;;16.70;15.20;;;16.40;99.90;;;;;;5013946;28;20187;-69
2022/06/13 04:26:23;;;;;;;10.37;9.37;;;16.40;99.90;;;;;;5011897;28;20191;-69
2022/06/13 04:29:04;;;;;;;10.20;9.20;;;16.40;99.90;;;;;;5012604;28;20211;-70
2022/06/13 04:31:32;;;;;;;52.83;49.47;;;16.50;99.90;;;;;;5013849;28;20199;-70
2022/06/13 04:36:32;;;;;;;43.53;40.77;;;16.50;99.90;;;;;;4989543;28;20552;-68
2022/06/13 04:39:01;;;;;;;10.70;8.87;;;16.60;99.90;;;;;;4993887;28;20676;-69
2022/06/13 04:41:32;;;;;;;14.57;13.57;;;16.60;99.90;;;;;;5010153;28;20220;-72
2022/06/13 04:44:03;;;;;;;23.57;22.37;;;16.60;99.90;;;;;;4993924;28;20180;-69
2022/06/13 04:46:30;;;;;;;10.93;9.73;;;16.60;99.90;;;;;;4974673;28;20203;-69
2022/06/13 04:48:58;;;;;;;9.97;7.67;;;16.60;99.90;;;;;;4973400;28;20967;-69
2022/06/13 04:51:30;;;;;;;9.33;8.47;;;16.70;99.90;;;;;;4975283;28;20191;-68
2022/06/13 04:54:11;;;;;;;12.70;7.30;;;16.60;99.90;;;;;;4973857;28;20197;-68
2022/06/13 04:56:38;;;;;;;8.67;7.93;;;16.60;99.90;;;;;;4974192;28;20238;-69
2022/06/13 04:59:04;;;;;;;10.90;10.00;;;16.70;99.90;;;;;;4972591;28;20196;-69
2022/06/13 05:01:40;;;;;;;32.60;30.17;;;16.80;99.90;;;;;;4973831;28;20706;-69
2022/06/13 05:04:09;;;;;;;26.27;24.30;;;16.80;99.90;;;;;;4973481;28;20184;-69
2022/06/13 05:06:47;;;;;;;59.60;56.30;;;16.90;99.90;;;;;;4971813;28;20645;-67
2022/06/13 05:09:15;;;;;;;79.67;75.10;;;16.90;99.90;;;;;;4971489;28;20196;-67
2022/06/13 05:12:06;;;;;;;11.50;10.43;;;17.00;99.90;;;;;;4973617;28;20188;-68
2022/06/13 05:14:56;;;;;;;32.77;30.40;;;17.20;99.90;;;;;;4970024;28;20197;-69
2022/06/13 05:17:45;;;;;;;32.87;30.57;;;17.50;99.90;;;;;;4971352;28;20189;-68
2022/06/13 05:20:17;;;;;;;15.30;14.30;;;17.80;99.90;;;;;;4973169;28;20644;-67
2022/06/13 05:22:53;;;;;;;24.53;23.03;;;18.50;99.90;;;;;;4972551;28;20669;-69
2022/06/13 05:25:37;;;;;;;19.83;18.30;;;19.20;99.90;;;;;;4973504;28;20259;-68
2022/06/13 05:28:03;;;;;;;74.27;70.33;;;19.90;99.90;;;;;;4971968;28;20342;-70
2022/06/13 05:30:29;;;;;;;83.35;78.88;;;20.50;99.90;;;;;;4973557;28;20284;-70
2022/06/13 05:32:56;;;;;;;20.88;19.63;;;20.80;99.90;;;;;;4987910;28;20207;-86
2022/06/13 05:35:28;;;;;;;11.43;10.18;;;21.10;99.90;;;;;;4998850;28;20307;-85
2022/06/13 05:37:56;;;;;;;8.85;8.25;;;21.60;99.90;;;;;;4998221;28;20211;-86
2022/06/13 05:40:23;;;;;;;9.30;8.45;;;21.80;99.90;;;;;;4999067;28;20208;-87
2022/06/13 05:42:50;;;;;;;18.73;17.58;;;21.80;99.90;;;;;;4998373;28;20199;-87
2022/06/13 05:45:18;;;;;;;28.60;26.83;;;21.30;99.90;;;;;;4996150;28;20200;-87
2022/06/13 05:47:47;;;;;;;28.33;26.23;;;20.80;99.90;;;;;;4994856;28;20694;-87
2022/06/13 05:50:17;;;;;;;9.90;9.15;;;20.60;99.90;;;;;;4996235;28;20184;-87
2022/06/13 05:52:44;;;;;;;6.78;6.18;;;20.30;99.90;;;;;;4996826;28;20188;-87
2022/06/13 05:55:10;;;;;;;7.70;7.10;;;20.60;99.90;;;;;;4998431;28;20239;-87
2022/06/13 05:57:38;;;;;;;29.98;27.80;;;20.70;99.90;;;;;;4995887;28;20283;-87
2022/06/13 06:00:05;;;;;;;8.63;5.95;;;20.60;99.90;;;;;;4997047;28;20219;-88
2022/06/13 06:02:31;;;;;;;43.53;41.05;;;20.70;99.90;;;;;;5004551;28;20184;-88
2022/06/13 06:04:57;;;;;;;103.95;98.57;;;21.00;99.90;;;;;;5009057;28;20758;-87
2022/06/13 06:07:22;;;;;;;82.68;78.43;;;20.90;99.90;;;;;;5007003;28;20196;-86
2022/06/13 06:09:48;;;;;;;50.28;47.47;;;20.90;99.90;;;;;;5012208;28;20185;-88
2022/06/13 06:12:14;;;;;;;80.45;76.03;;;20.70;99.90;;;;;;5017641;28;20176;-89
2022/06/13 06:14:40;;;;;;;132.23;125.65;;;21.10;99.90;;;;;;5017716;28;20196;-88
2022/06/13 06:17:06;;;;;;;172.00;163.15;;;21.20;99.90;;;;;;5016639;28;20248;-87
2022/06/13 06:19:31;;;;;;;133.55;126.72;;;20.90;99.90;;;;;;5017188;28;20203;-88
2022/06/13 06:21:59;;;;;;;166.80;158.50;;;21.10;99.90;;;;;;5012379;28;20232;-87
2022/06/13 06:24:25;;;;;;;119.25;113.32;;;21.20;99.90;;;;;;5026883;28;20208;-86
2022/06/13 06:26:51;;;;;;;140.60;133.57;;;21.10;99.90;;;;;;5006880;28;20203;-87
2022/06/13 06:29:17;;;;;;;163.70;155.73;;;21.30;99.90;;;;;;5004319;28;20199;-86
2022/06/13 06:31:43;;;;;;;12.55;11.38;;;21.50;99.90;;;;;;5019080;28;20312;-86
2022/06/13 06:34:08;;;;;;;14.20;13.32;;;22.00;99.90;;;;;;5003198;28;20200;-85
2022/06/13 06:36:35;;;;;;;14.65;12.90;;;22.00;99.90;;;;;;5012678;28;20193;-86
2022/06/13 06:39:01;;;;;;;9.55;8.50;;;22.10;99.90;;;;;;5014366;28;20180;-86
2022/06/13 06:41:27;;;;;;;10.95;10.00;;;22.20;99.90;;;;;;5006622;28;20239;-87
2022/06/13 06:43:53;;;;;;;68.18;64.63;;;22.50;99.90;;;;;;5020193;28;20334;-87
2022/06/13 06:46:19;;;;;;;76.82;72.35;;;22.90;99.90;;;;;;5004150;28;20231;-87
2022/06/13 06:48:44;;;;;;;100.65;95.25;;;23.30;99.90;;;;;;5003971;28;20185;-87
2022/06/13 06:51:13;;;;;;;41.45;39.08;;;23.30;99.90;;;;;;5018971;28;20184;-87
2022/06/13 07:01:56;;;;;;;67.97;63.72;;;22.80;99.90;;;;;;5006248;28;20219;-87
2022/06/13 07:04:22;;;;;;;26.98;25.15;;;23.00;99.90;;;;;;5010264;28;20540;-87
2022/06/13 07:06:48;;;;;;;9.23;6.55;;;23.20;99.90;;;;;;5009740;28;20321;-88
2022/06/13 07:09:13;;;;;;;7.65;5.47;;;23.30;99.90;;;;;;5020250;28;20184;-87
2022/06/13 07:11:55;;;;;;;11.38;5.00;;;23.20;99.90;;;;;;5002401;28;20236;-87
2022/06/13 07:14:27;;;;;;;11.13;6.13;;;23.20;99.90;;;;;;5003954;28;20220;-87
2022/06/13 07:16:53;;;;;;;7.90;7.03;;;23.10;99.90;;;;;;5002860;28;20631;-88
2022/06/13 07:19:20;;;;;;;5.63;4.53;;;23.00;99.90;;;;;;5006152;28;20271;-89
2022/06/13 07:21:46;;;;;;;11.60;5.88;;;22.70;99.90;;;;;;4991216;28;20703;-87
2022/06/13 07:24:12;;;;;;;9.40;5.22;;;22.50;99.90;;;;;;5006013;28;20176;-87
2022/06/13 07:26:38;;;;;;;6.30;4.53;;;22.60;99.90;;;;;;5013966;28;20211;-89
2022/06/13 07:29:05;;;;;;;6.65;5.55;;;22.60;99.90;;;;;;5016703;28;20173;-89
2022/06/13 07:31:40;;;;;;;11.48;6.60;;;22.50;99.90;;;;;;5016589;28;20180;-89
2022/06/13 07:34:12;;;;;;;8.70;4.93;;;22.70;99.90;;;;;;5015955;28;20491;-88
2022/06/13 07:36:38;;;;;;;8.93;4.85;;;22.70;99.90;;;;;;5008536;28;20290;-89
2022/06/13 07:39:05;;;;;;;7.38;6.78;;;22.40;99.90;;;;;;5006722;28;20188;-89
2022/06/13 07:41:31;;;;;;;9.23;6.13;;;22.50;99.90;;;;;;5009204;28;20211;-88
2022/06/13 07:43:57;;;;;;;5.95;4.82;;;23.10;99.90;;;;;;5011717;28;20231;-90
2022/06/13 07:46:27;;;;;;;11.25;10.27;;;23.20;99.90;;;;;;5020470;28;20234;-88
2022/06/13 07:48:53;;;;;;;8.43;7.63;;;23.00;99.90;;;;;;5009746;28;20633;-87
2022/06/13 07:51:21;;;;;;;10.43;9.52;;;23.00;99.90;;;;;;5008199;28;20201;-86
2022/06/13 07:53:47;;;;;;;12.93;11.63;;;23.30;99.90;;;;;;5009835;28;20196;-87
2022/06/13 07:56:17;;;;;;;13.25;12.15;;;24.00;99.90;;;;;;5009978;28;20200;-86
2022/06/13 07:58:44;;;;;;;18.27;16.98;;;24.70;99.90;;;;;;5009240;28;20219;-86
2022/06/13 08:01:11;;;;;;;14.93;13.48;;;24.70;99.90;;;;;;5011137;28;20212;-87
2022/06/13 08:03:38;;;;;;;15.05;14.02;;;24.10;99.90;;;;;;5011078;28;20179;-87
2022/06/13 08:06:05;;;;;;;10.38;9.30;;;23.60;99.90;;;;;;5011470;28;20204;-87
2022/06/13 08:08:34;;;;;;;13.10;11.82;;;23.20;99.90;;;;;;5011252;28;20184;-88
2022/06/13 08:11:02;;;;;;;16.50;15.25;;;23.40;99.90;;;;;;5010722;28;20184;-88
2022/06/13 08:13:29;;;;;;;15.75;14.60;;;23.40;99.90;;;;;;5011613;28;20184;-88
2022/06/13 08:15:56;;;;;;;13.98;12.70;;;23.50;99.90;;;;;;5010602;28;20200;-87
2022/06/13 08:18:22;;;;;;;14.18;13.20;;;23.50;99.90;;;;;;5010556;28;20188;-87
2022/06/13 08:20:48;;;;;;;7.53;6.72;;;23.10;99.90;;;;;;5015239;28;20236;-88
2022/06/13 08:23:16;;;;;;;7.97;7.10;;;22.90;99.90;;;;;;5019526;28;20227;-88
2022/06/13 08:25:42;;;;;;;8.10;7.40;;;23.00;99.90;;;;;;5019307;28;20271;-88
2022/06/13 08:28:10;;;;;;;13.85;13.00;;;23.50;99.90;;;;;;5009939;28;20195;-87
2022/06/13 08:30:57;;;;;;;11.13;10.15;;;23.50;99.90;;;;;;5010148;28;20211;-87
2022/06/13 08:33:24;;;;;;;15.43;14.13;;;23.30;99.90;;;;;;5011084;28;20254;-87
2022/06/13 08:35:50;;;;;;;12.02;11.32;;;23.00;99.90;;;;;;5009632;28;20212;-87
2022/06/13 08:38:16;;;;;;;7.43;6.55;;;22.70;99.90;;;;;;5008063;28;20245;-87
2022/06/13 08:41:04;;;;;;;8.18;6.35;;;22.90;99.90;;;;;;5015726;28;20231;-87
2022/06/13 08:44:07;;;;;;;8.30;6.25;;;23.00;99.90;;;;;;5009128;28;20268;-88
2022/06/13 08:47:00;;;;;;;6.10;5.47;;;23.00;99.90;;;;;;5014330;28;20188;-88
2022/06/13 08:49:43;;;;;;;16.30;15.10;;;23.20;99.90;;;;;;5014398;28;20219;-87
2022/06/13 08:52:26;;;;;;;19.02;17.73;;;23.70;99.90;;;;;;5018346;28;20191;-88
2022/06/13 08:55:03;;;;;;;13.88;12.82;;;24.20;99.90;;;;;;5011912;28;20315;-87
2022/06/13 08:57:33;;;;;;;8.10;7.30;;;24.40;99.90;;;;;;5006668;28;20206;-86
2022/06/13 09:00:13;;;;;;;10.75;9.95;;;24.70;99.40;;;;;;5018290;28;20277;-88
2022/06/13 09:02:48;;;;;;;6.50;5.15;;;25.40;99.90;;;;;;5017563;28;20183;-87
2022/06/13 09:05:28;;;;;;;6.35;4.63;;;26.60;98.50;;;;;;5011846;28;20218;-87
2022/06/13 09:08:19;;;;;;;6.18;4.68;;;27.30;96.40;;;;;;5017799;28;20211;-88
2022/06/13 09:10:49;;;;;;;7.13;4.07;;;26.30;94.10;;;;;;5013778;28;20191;-86
2022/06/13 09:13:37;;;;;;;6.45;4.55;;;25.40;95.60;;;;;;5011596;28;20192;-86
2022/06/13 09:16:20;;;;;;;5.28;4.35;;;25.10;96.90;;;;;;5007330;28;20240;-86
2022/06/13 09:19:28;;;;;;;5.63;4.80;;;25.00;97.50;;;;;;5008012;28;20208;-86
2022/06/13 09:22:03;;;;;;;11.20;5.70;;;24.80;97.80;;;;;;5025537;28;20234;-87
2022/06/13 09:25:01;;;;;;;8.23;6.68;;;23.90;99.10;;;;;;5008486;28;20208;-87
2022/06/13 09:27:54;;;;;;;9.23;7.00;;;24.30;97.70;;;;;;5010671;28;20207;-86
2022/06/13 09:30:52;;;;;;;8.77;7.00;;;25.00;96.50;;;;;;5010505;28;20181;-85
2022/06/13 09:33:31;;;;;;;7.65;4.97;;;25.00;97.60;;;;;;5007298;28;20196;-87
2022/06/13 09:36:13;;;;;;;7.40;4.30;;;25.60;95.60;;;;;;5005310;28;20220;-87
2022/06/13 09:38:47;;;;;;;9.48;4.20;;;25.00;96.70;;;;;;4994747;28;20188;-87
2022/06/13 09:41:38;;;;;;;8.95;4.35;;;24.40;96.40;;;;;;5016612;28;20258;-87
2022/06/13 09:44:32;;;;;;;5.40;4.90;;;23.70;95.70;;;;;;5015922;28;20192;-86
2022/06/13 09:47:17;;;;;;;7.15;6.00;;;23.70;97.20;;;;;;5004310;28;20199;-86
2022/06/13 09:49:54;;;;;;;8.15;4.32;;;24.70;95.60;;;;;;5004140;28;20206;-86
2022/06/13 09:52:39;;;;;;;6.03;3.65;;;25.10;94.40;;;;;;5004152;28;20430;-86
2022/06/13 09:55:24;;;;;;;5.35;4.28;;;25.50;91.90;;;;;;5005464;28;20231;-86
2022/06/13 09:58:07;;;;;;;5.35;4.85;;;25.80;91.40;;;;;;5008218;28;20672;-86
2022/06/13 10:01:03;;;;;;;6.93;5.28;;;26.20;88.40;;;;;;5003428;28;20238;-86
2022/06/13 10:03:46;;;;;;;7.25;6.72;;;26.50;88.30;;;;;;5014861;28;20172;-86
2022/06/13 10:06:38;;;;;;;12.30;11.45;;;26.90;87.80;;;;;;5015601;28;20219;-86
2022/06/13 10:09:07;;;;;;;6.22;5.07;;;26.90;87.30;;;;;;5014550;28;20188;-86
2022/06/13 10:12:14;;;;;;;14.38;13.35;;;26.90;85.00;;;;;;5009576;28;20204;-85
2022/06/13 10:15:00;;;;;;;9.52;8.68;;;26.90;82.30;;;;;;5023762;28;20204;-86
2022/06/13 10:17:57;;;;;;;13.80;13.13;;;26.90;82.70;;;;;;5002095;28;20207;-86
2022/06/13 10:20:26;;;;;;;19.08;17.73;;;26.90;79.80;;;;;;5004037;28;20718;-85
2022/06/13 10:23:17;;;;;;;22.50;21.10;;;27.70;79.60;;;;;;5003212;28;20784;-84
2022/06/13 10:26:12;;;;;;;25.77;24.23;;;26.70;79.60;;;;;;5017402;28;20649;-85
2022/06/13 10:29:13;;;;;;;9.48;4.78;;;25.30;79.00;;;;;;5001931;28;20188;-85
2022/06/13 10:32:09;;;;;;;5.88;5.28;;;25.20;85.40;;;;;;4984878;28;20219;-85
2022/06/13 10:35:12;;;;;;;4.85;4.43;;;26.00;83.00;;;;;;5037125;23;20313;-78
2022/06/13 10:38:08;;;;;;;7.15;5.05;;;25.40;82.80;;;;;;5003678;28;20195;-79
2022/06/13 10:40:35;;;;;;;6.32;5.00;;;25.20;82.90;;;;;;5003138;28;20216;-79
2022/06/13 10:43:02;;;;;;;5.88;4.43;;;25.40;80.60;;;;;;4994876;28;20180;-79
2022/06/13 10:45:28;;;;;;;6.28;5.75;;;26.00;80.40;;;;;;5003210;28;20586;-79
2022/06/13 10:48:06;;;;;;;5.78;5.03;;;26.10;79.70;;;;;;5030359;28;20271;-78
2022/06/13 10:50:57;;;;;;;7.53;6.45;;;25.40;81.60;;;;;;5017335;28;20195;-79
2022/06/13 10:53:38;;;;;;;7.97;4.70;;;24.80;83.90;;;;;;5013701;28;20253;-79
2022/06/13 10:56:09;;;;;;;6.53;5.30;;;25.40;82.90;;;;;;5013815;28;20215;-79
2022/06/13 10:58:54;;;;;;;5.20;4.45;;;25.90;80.90;;;;;;5014250;28;20660;-79
2022/06/13 11:01:25;;;;;;;6.40;5.68;;;25.90;79.10;;;;;;5014665;28;20218;-78
2022/06/13 11:04:28;;;;;;;17.05;15.88;;;26.20;77.60;;;;;;5013023;28;20269;-79
2022/06/13 11:07:09;;;;;;;22.73;21.42;;;27.20;71.00;;;;;;5009413;28;20782;-78
2022/06/13 11:09:45;;;;;;;18.63;17.33;;;26.80;72.80;;;;;;5013303;28;20180;-78
2022/06/13 11:12:23;;;;;;;20.00;18.73;;;26.20;75.20;;;;;;5013477;28;20199;-79
2022/06/13 11:23:48;;;;;;;6.25;5.07;;;23.80;80.80;;;;;;4955626;29;20238;-79
2022/06/13 11:29:02;;;;;;;4.72;4.22;;;25.30;76.70;;;;;;5014856;28;20183;-79
2022/06/13 11:31:27;;;;;;;16.52;15.38;;;26.10;76.20;;;;;;5030068;28;20187;-79
2022/06/13 11:33:53;;;;;;;14.90;13.85;;;26.00;73.30;;;;;;5013324;28;20180;-78
2022/06/13 11:36:26;;;;;;;8.43;6.93;;;25.00;74.90;;;;;;5014397;28;20215;-79
2022/06/13 11:38:58;;;;;;;5.40;4.95;;;24.00;76.80;;;;;;5018669;28;20183;-78
2022/06/13 11:41:42;;;;;;;7.07;6.38;;;23.60;79.50;;;;;;5010499;28;20204;-78
2022/06/13 11:44:19;;;;;;;4.53;3.65;;;24.20;80.50;;;;;;5012705;28;20188;-78
2022/06/13 11:46:53;;;;;;;16.98;15.85;;;25.70;74.80;;;;;;5010926;28;20199;-78
2022/06/13 11:49:35;;;;;;;24.73;23.15;;;26.30;68.70;;;;;;5022708;28;20661;-78
2022/06/13 11:52:13;;;;;;;21.90;20.65;;;26.30;69.50;;;;;;5019682;28;20206;-79
2022/06/13 11:54:48;;;;;;;20.33;19.02;;;26.10;66.90;;;;;;5013433;28;20214;-79
2022/06/13 11:57:18;;;;;;;17.98;17.02;;;25.50;71.10;;;;;;5015015;28;20191;-79
2022/06/13 11:59:56;;;;;;;24.02;22.55;;;26.20;69.00;;;;;;5015182;28;20187;-79
2022/06/13 12:02:44;;;;;;;28.90;26.80;;;27.40;67.20;;;;;;5014655;28;20222;-79
2022/06/13 12:05:31;;;;;;;27.38;25.77;;;27.30;66.00;;;;;;5016412;28;20204;-78
2022/06/13 12:08:15;;;;;;;21.52;20.23;;;26.30;66.50;;;;;;5019214;28;20188;-79
2022/06/13 12:10:55;;;;;;;17.92;16.90;;;25.40;70.80;;;;;;5020113;28;20195;-79
2022/06/13 12:13:22;;;;;;;23.27;22.00;;;25.90;69.00;;;;;;5014726;28;20183;-79
2022/06/13 12:16:27;;;;;;;29.67;28.00;;;26.60;65.60;;;;;;5013928;28;20202;-79
2022/06/13 12:19:12;;;;;;;21.73;20.52;;;27.40;63.50;;;;;;5013666;28;20245;-79
2022/06/13 12:21:43;;;;;;;23.23;21.38;;;27.70;64.20;;;;;;5012833;28;20315;-79
2022/06/13 12:24:21;;;;;;;34.08;32.17;;;27.50;61.60;;;;;;5012939;28;20286;-78
2022/06/13 12:27:37;;;;;;;27.77;26.20;;;26.20;64.00;;;;;;5014569;28;20290;-79
2022/06/13 12:30:21;;;;;;;27.40;25.90;;;25.90;66.80;;;;;;4991918;28;20195;-79
2022/06/13 12:32:53;;;;;;;27.75;26.05;;;26.10;65.50;;;;;;5016690;28;20179;-79
2022/06/13 12:35:40;;;;;;;17.60;16.45;;;27.30;62.40;;;;;;5015990;28;20226;-79
2022/06/13 12:38:19;;;;;;;17.08;16.15;;;27.70;61.20;;;;;;5016867;28;20186;-79
2022/06/13 12:40:52;;;;;;;16.00;15.20;;;27.60;60.20;;;;;;5015600;28;20311;-79
2022/06/13 12:43:45;;;;;;;26.75;25.30;;;26.70;61.50;;;;;;5017069;28;20730;-79
2022/06/13 12:46:29;;;;;;;34.83;32.95;;;25.90;62.90;;;;;;5015539;28;20203;-78
2022/06/13 12:49:05;;;;;;;38.88;36.78;;;25.40;68.00;;;;;;5016305;28;20266;-79
2022/06/13 12:51:40;;;;;;;24.92;23.55;;;26.30;63.30;;;;;;5015291;28;20612;-79
2022/06/13 12:54:18;;;;;;;29.20;27.58;;;27.10;59.70;;;;;;5015252;28;20229;-78
2022/06/13 12:57:31;;;;;;;22.65;21.35;;;27.30;60.90;;;;;;5014631;28;20294;-79
2022/06/13 13:00:15;;;;;;;11.82;11.13;;;28.10;61.80;;;;;;5015435;28;20548;-79
2022/06/13 13:02:56;;;;;;;13.77;12.98;;;27.70;56.90;;;;;;5021602;28;20184;-79
2022/06/13 13:05:24;;;;;;;10.25;9.63;;;27.60;59.30;;;;;;5016334;28;20608;-79
2022/06/13 13:08:24;;;;;;;9.25;8.75;;;28.10;58.10;;;;;;5016353;28;20172;-78
2022/06/13 13:10:53;;;;;;;10.48;9.90;;;27.60;56.90;;;;;;5017032;28;20183;-79
2022/06/13 13:13:24;;;;;;;11.15;10.63;;;28.30;58.90;;;;;;5015352;28;20570;-79
2022/06/13 13:16:02;;;;;;;9.95;9.25;;;29.10;54.50;;;;;;5016776;28;20216;-78
2022/06/13 13:18:39;;;;;;;8.60;7.97;;;28.00;56.40;;;;;;5018402;28;20188;-79
2022/06/13 13:21:29;;;;;;;10.05;9.25;;;28.20;56.00;;;;;;5015320;28;20214;-79
2022/06/13 13:23:55;;;;;;;8.95;8.30;;;28.70;56.60;;;;;;5016312;28;20180;-79
2022/06/13 13:26:47;;;;;;;10.95;9.90;;;28.80;57.10;;;;;;5014936;28;20202;-79
2022/06/13 13:29:32;;;;;;;8.02;7.53;;;28.50;55.50;;;;;;5014701;28;20276;-79
2022/06/13 13:32:25;;;;;;;8.02;5.90;;;28.30;56.70;;;;;;5015721;28;20198;-79
2022/06/13 13:35:31;;;;;;;10.75;9.93;;;28.60;55.40;;;;;;5017914;28;20219;-78
2022/06/13 13:38:01;;;;;;;9.02;8.52;;;27.20;57.40;;;;;;5018264;28;20245;-79
2022/06/13 13:40:52;;;;;;;7.47;6.90;;;27.30;58.60;;;;;;5020827;28;20211;-79
2022/06/13 13:43:27;;;;;;;8.73;7.95;;;27.80;57.30;;;;;;5019617;28;20264;-79
2022/06/13 13:46:27;;;;;;;9.27;8.68;;;28.30;55.70;;;;;;5018579;28;20199;-79
2022/06/13 13:49:12;;;;;;;7.95;7.45;;;28.80;54.10;;;;;;5022246;28;20184;-79